createdAt,value
2022-09-15T00:00:57.783Z,19.63
2022-09-15T00:03:24.842Z,19.77
2022-09-15T00:05:53.521Z,19.73
2022-09-15T00:08:20.706Z,19.80
2022-09-15T00:10:50.064Z,19.88
2022-09-15T00:13:17.416Z,19.89
2022-09-15T00:15:44.127Z,19.89
2022-09-15T00:18:10.891Z,19.84
2022-09-15T00:20:43.181Z,19.83
2022-09-15T00:23:11.782Z,19.79
2022-09-15T00:25:50.089Z,19.73
2022-09-15T00:28:19.817Z,19.59
2022-09-15T00:30:49.195Z,19.64
2022-09-15T00:33:16.993Z,19.58
2022-09-15T00:35:45.865Z,19.61
2022-09-15T00:38:14.251Z,19.56
2022-09-15T00:40:53.109Z,19.60
2022-09-15T00:44:00.616Z,19.60
2022-09-15T00:46:33.900Z,19.58
2022-09-15T00:49:25.712Z,19.61
2022-09-15T00:52:14.319Z,19.51
2022-09-15T00:55:01.755Z,19.50
2022-09-15T00:57:35.445Z,19.53
2022-09-15T01:00:06.639Z,19.52
2022-09-15T01:02:35.781Z,19.54
2022-09-15T01:05:07.692Z,19.60
2022-09-15T01:07:52.897Z,19.54
2022-09-15T01:10:26.673Z,19.62
2022-09-15T01:12:57.102Z,19.58
2022-09-15T01:15:32.896Z,19.55
2022-09-15T01:18:13.034Z,19.56
2022-09-15T01:21:07.205Z,19.56
2022-09-15T01:23:48.224Z,19.49
2022-09-15T01:26:57.651Z,19.43
2022-09-15T01:29:40.210Z,19.59
2022-09-15T01:32:55.185Z,19.58
2022-09-15T01:35:46.629Z,19.58
2022-09-15T01:38:13.225Z,19.55
2022-09-15T01:40:50.119Z,19.55
2022-09-15T01:43:21.310Z,19.58
2022-09-15T01:45:51.299Z,19.60
2022-09-15T01:48:22.093Z,19.58
2022-09-15T01:50:53.058Z,19.67
2022-09-15T01:53:22.231Z,19.61
2022-09-15T01:56:05.130Z,19.69
2022-09-15T01:58:33.000Z,19.60
2022-09-15T02:01:06.669Z,19.54
2022-09-15T02:03:44.235Z,19.57
2022-09-15T02:06:35.981Z,19.60
2022-09-15T02:09:12.606Z,19.50
2022-09-15T02:11:50.040Z,19.56
2022-09-15T02:14:24.313Z,19.55
2022-09-15T02:16:54.094Z,19.62
2022-09-15T02:19:35.912Z,19.54
2022-09-15T02:22:12.213Z,19.54
2022-09-15T02:24:44.457Z,19.53
2022-09-15T02:27:18.447Z,19.51
2022-09-15T02:29:48.466Z,19.57
2022-09-15T02:32:18.794Z,19.48
2022-09-15T02:34:51.348Z,19.48
2022-09-15T02:37:21.391Z,19.51
2022-09-15T02:39:54.540Z,19.48
2022-09-15T02:42:29.593Z,19.40
2022-09-15T02:44:56.761Z,19.39
2022-09-15T02:47:24.384Z,19.37
2022-09-15T02:49:51.294Z,19.44
2022-09-15T02:52:17.981Z,19.49
2022-09-15T02:54:44.712Z,19.40
2022-09-15T02:57:11.560Z,19.38
2022-09-15T02:59:56.967Z,19.39
2022-09-15T03:02:25.214Z,19.37
2022-09-15T03:04:52.172Z,19.43
2022-09-15T03:07:19.319Z,19.40
2022-09-15T03:09:46.682Z,19.42
2022-09-15T03:12:13.742Z,19.46
2022-09-15T03:14:40.431Z,19.43
2022-09-15T03:17:07.112Z,19.47
2022-09-15T03:19:33.721Z,19.39
2022-09-15T03:22:00.358Z,19.43
2022-09-15T03:24:27.010Z,19.38
2022-09-15T03:26:53.668Z,19.38
2022-09-15T03:29:20.284Z,19.37
2022-09-15T03:31:47.738Z,19.41
2022-09-15T03:34:14.462Z,19.31
2022-09-15T03:36:41.643Z,19.30
2022-09-15T03:39:11.179Z,19.19
2022-09-15T03:41:38.171Z,19.30
2022-09-15T03:44:06.009Z,19.39
2022-09-15T03:46:33.009Z,19.46
2022-09-15T03:48:59.681Z,19.41
2022-09-15T03:51:26.816Z,19.50
2022-09-15T03:53:55.236Z,19.49
2022-09-15T03:56:26.316Z,19.46
2022-09-15T03:58:53.395Z,19.47
2022-09-15T04:01:20.705Z,19.39
2022-09-15T04:03:51.170Z,19.43
2022-09-15T04:06:20.965Z,19.40
2022-09-15T04:08:51.638Z,19.49
2022-09-15T04:11:19.947Z,19.24
2022-09-15T04:13:47.407Z,19.15
2022-09-15T04:16:23.198Z,18.99
2022-09-15T04:18:51.184Z,19.00
2022-09-15T04:21:20.931Z,19.02
2022-09-15T04:23:48.470Z,19.05
2022-09-15T04:26:27.390Z,18.89
2022-09-15T04:28:54.079Z,18.85
2022-09-15T04:31:20.844Z,18.83
2022-09-15T04:33:48.096Z,18.74
2022-09-15T04:36:17.675Z,18.75
2022-09-15T04:38:45.363Z,18.75
2022-09-15T04:41:13.284Z,18.93
2022-09-15T04:43:40.818Z,18.83
2022-09-15T04:46:07.652Z,18.68
2022-09-15T04:48:34.411Z,18.75
2022-09-15T04:51:02.746Z,18.94
2022-09-15T04:53:29.543Z,18.95
2022-09-15T04:56:07.270Z,18.82
2022-09-15T04:58:38.964Z,18.76
2022-09-15T05:01:14.843Z,18.83
2022-09-15T05:03:42.505Z,18.64
2022-09-15T05:06:12.222Z,18.68
2022-09-15T05:08:39.784Z,18.73
2022-09-15T05:11:09.373Z,18.57
2022-09-15T05:13:37.233Z,18.60
2022-09-15T05:16:11.893Z,18.80
2022-09-15T05:18:39.945Z,18.66
2022-09-15T05:21:08.463Z,18.40
2022-09-15T05:23:36.536Z,18.38
2022-09-15T05:26:08.577Z,18.19
2022-09-15T05:28:37.152Z,18.44
2022-09-15T05:31:31.436Z,18.18
2022-09-15T05:34:00.860Z,18.13
2022-09-15T05:36:27.676Z,18.14
2022-09-15T05:38:56.615Z,18.04
2022-09-15T05:41:24.225Z,18.00
2022-09-15T05:43:51.311Z,18.21
2022-09-15T05:46:19.446Z,18.37
2022-09-15T05:48:46.479Z,18.44
2022-09-15T05:51:14.264Z,18.24
2022-09-15T05:53:42.196Z,18.06
2022-09-15T05:56:14.249Z,18.09
2022-09-15T05:58:42.311Z,18.11
2022-09-15T06:01:18.490Z,17.96
2022-09-15T06:03:45.824Z,17.97
2022-09-15T06:06:13.136Z,17.92
2022-09-15T06:08:44.416Z,17.70
2022-09-15T06:11:13.849Z,17.61
2022-09-15T06:13:41.352Z,17.78
2022-09-15T06:16:17.077Z,17.69
2022-09-15T06:18:43.985Z,17.66
2022-09-15T06:21:16.711Z,17.67
2022-09-15T06:23:48.484Z,17.64
2022-09-15T06:26:18.933Z,17.71
2022-09-15T06:28:54.980Z,17.82
2022-09-15T06:31:22.623Z,17.80
2022-09-15T06:33:51.561Z,17.81
2022-09-15T06:36:21.026Z,17.80
2022-09-15T06:38:48.034Z,17.97
2022-09-15T06:41:16.625Z,18.03
2022-09-15T06:43:43.869Z,18.12
2022-09-15T06:46:16.117Z,17.83
2022-09-15T06:48:47.515Z,17.77
2022-09-15T06:51:17.080Z,17.85
2022-09-15T06:53:44.082Z,17.99
2022-09-15T06:56:13.340Z,17.89
2022-09-15T06:58:41.746Z,17.84
2022-09-15T07:01:13.506Z,17.81
2022-09-15T07:03:42.844Z,17.51
2022-09-15T07:06:11.803Z,17.62
2022-09-15T07:08:39.884Z,17.50
2022-09-15T07:11:07.609Z,17.69
2022-09-15T07:13:34.252Z,17.73
2022-09-15T07:16:03.955Z,17.57
2022-09-15T07:18:31.937Z,17.50
2022-09-15T07:21:11.338Z,17.47
2022-09-15T07:23:38.041Z,17.64
2022-09-15T07:26:12.098Z,17.72
2022-09-15T07:28:39.898Z,17.64
2022-09-15T07:31:08.026Z,17.63
2022-09-15T07:33:35.312Z,17.71
2022-09-15T07:36:03.179Z,17.74
2022-09-15T07:38:30.021Z,17.92
2022-09-15T07:41:06.366Z,18.03
2022-09-15T07:43:33.975Z,17.84
2022-09-15T07:46:01.635Z,17.82
2022-09-15T07:48:28.775Z,17.91
2022-09-15T07:50:55.960Z,18.02
2022-09-15T07:53:22.881Z,18.10
2022-09-15T07:55:53.409Z,18.06
2022-09-15T07:58:21.364Z,18.06
2022-09-15T08:00:48.901Z,18.08
2022-09-15T08:03:15.894Z,17.98
2022-09-15T08:05:45.618Z,18.03
2022-09-15T08:08:13.174Z,18.09
2022-09-15T08:10:41.442Z,17.97
2022-09-15T08:13:08.720Z,18.02
2022-09-15T08:15:37.305Z,18.19
2022-09-15T08:18:04.821Z,18.18
2022-09-15T08:20:31.761Z,18.39
2022-09-15T08:22:58.884Z,18.52
2022-09-15T08:25:25.575Z,18.51
2022-09-15T08:27:54.149Z,18.37
2022-09-15T08:30:21.222Z,18.32
2022-09-15T08:32:48.504Z,18.55
2022-09-15T08:35:15.872Z,18.68
2022-09-15T08:37:42.794Z,18.77
2022-09-15T08:40:17.579Z,18.83
2022-09-15T08:42:46.702Z,18.77
2022-09-15T08:45:20.093Z,18.92
2022-09-15T08:47:49.995Z,18.86
2022-09-15T08:50:29.769Z,18.63
2022-09-15T08:53:30.943Z,18.67
2022-09-15T08:56:01.353Z,18.72
2022-09-15T08:58:37.516Z,18.81
2022-09-15T09:01:23.564Z,18.85
2022-09-15T09:04:14.499Z,18.86
2022-09-15T09:07:01.805Z,18.62
2022-09-15T09:09:58.214Z,18.79
2022-09-15T09:12:32.527Z,18.95
2022-09-15T09:15:17.790Z,18.91
2022-09-15T09:18:02.404Z,18.94
2022-09-15T09:20:43.114Z,18.97
2022-09-15T09:23:14.482Z,18.97
2022-09-15T09:25:44.865Z,19.19
2022-09-15T09:28:40.047Z,19.07
2022-09-15T09:31:12.604Z,19.02
2022-09-15T09:34:14.660Z,18.98
2022-09-15T09:36:42.536Z,18.89
2022-09-15T09:39:14.998Z,19.01
2022-09-15T09:41:43.710Z,19.01
2022-09-15T09:44:13.994Z,19.07
2022-09-15T09:46:41.840Z,19.24
2022-09-15T09:49:23.230Z,19.25
2022-09-15T09:52:02.148Z,19.25
2022-09-15T09:54:31.558Z,19.25
2022-09-15T09:57:23.144Z,19.14
2022-09-15T09:59:51.007Z,19.08
2022-09-15T10:02:19.073Z,19.19
2022-09-15T10:04:51.065Z,18.99
2022-09-15T10:07:21.166Z,18.99
2022-09-15T10:09:50.920Z,19.04
2022-09-15T10:12:40.745Z,19.11
2022-09-15T10:15:20.399Z,18.95
2022-09-15T10:17:49.505Z,19.25
2022-09-15T10:20:32.339Z,19.07
2022-09-15T10:23:27.417Z,19.01
2022-09-15T10:25:59.854Z,19.06
2022-09-15T10:28:27.408Z,18.99
2022-09-15T10:31:06.999Z,18.90
2022-09-15T10:33:44.991Z,18.94
2022-09-15T10:36:20.755Z,19.01
2022-09-15T10:39:00.718Z,19.27
2022-09-15T10:41:32.544Z,19.36
2022-09-15T10:44:14.457Z,19.51
2022-09-15T10:47:03.046Z,19.50
2022-09-15T10:49:48.212Z,19.63
2022-09-15T10:52:36.580Z,19.81
2022-09-15T10:55:52.611Z,19.83
2022-09-15T10:58:45.686Z,19.86
2022-09-15T11:01:27.940Z,19.78
2022-09-15T11:04:14.082Z,19.62
2022-09-15T11:07:02.486Z,19.72
2022-09-15T11:09:34.980Z,20.02
2022-09-15T11:12:16.591Z,20.10
2022-09-15T11:15:04.008Z,19.88
2022-09-15T11:17:43.011Z,20.02
2022-09-15T11:20:46.997Z,20.27
2022-09-15T11:23:24.572Z,20.46
2022-09-15T11:25:58.617Z,20.59
2022-09-15T11:28:33.055Z,20.32
2022-09-15T11:31:07.981Z,19.92
2022-09-15T11:33:44.314Z,19.82
2022-09-15T11:36:19.437Z,19.66
2022-09-15T11:38:52.896Z,19.55
2022-09-15T11:41:23.077Z,19.74
2022-09-15T11:44:07.464Z,19.78
2022-09-15T11:46:49.444Z,20.03
2022-09-15T11:49:24.891Z,20.17
2022-09-15T11:52:06.611Z,20.38
2022-09-15T11:54:57.653Z,20.19
2022-09-15T11:57:43.149Z,20.21
2022-09-15T12:00:14.880Z,20.33
2022-09-15T12:03:19.977Z,20.40
2022-09-15T12:06:14.609Z,20.27
2022-09-15T12:09:00.852Z,20.73
2022-09-15T12:11:31.640Z,20.51
2022-09-15T12:13:59.909Z,20.38
2022-09-15T12:16:28.054Z,20.43
2022-09-15T12:19:01.365Z,20.51
2022-09-15T12:21:50.045Z,20.58
2022-09-15T12:24:38.536Z,20.68
2022-09-15T12:27:05.274Z,20.69
2022-09-15T12:29:42.027Z,20.47
2022-09-15T12:32:19.756Z,20.22
2022-09-15T12:34:59.063Z,20.33
2022-09-15T12:37:30.712Z,20.46
2022-09-15T12:39:58.264Z,20.47
2022-09-15T12:42:27.711Z,20.14
2022-09-15T12:45:00.727Z,19.98
2022-09-15T12:47:33.607Z,20.00
2022-09-15T12:50:15.419Z,20.00
2022-09-15T12:52:48.845Z,20.14
2022-09-15T12:55:19.939Z,19.88
2022-09-15T12:57:53.094Z,19.89
2022-09-15T13:00:23.308Z,19.82
2022-09-15T13:02:51.426Z,19.91
2022-09-15T13:06:12.499Z,19.95
2022-09-15T13:08:47.418Z,20.32
2022-09-15T13:11:19.261Z,20.44
2022-09-15T13:13:51.961Z,20.67
2022-09-15T13:16:41.195Z,20.68
2022-09-15T13:19:16.381Z,20.55
2022-09-15T13:22:10.734Z,20.67
2022-09-15T13:24:46.089Z,20.78
2022-09-15T13:27:17.154Z,20.84
2022-09-15T13:29:49.308Z,20.67
2022-09-15T13:32:33.113Z,20.63
2022-09-15T13:35:20.873Z,20.53
2022-09-15T13:38:16.817Z,20.43
2022-09-15T13:41:14.990Z,20.34
2022-09-15T13:43:59.622Z,20.36
2022-09-15T13:46:27.407Z,20.58
2022-09-15T13:49:12.487Z,20.77
2022-09-15T13:51:43.691Z,20.65
2022-09-15T13:54:19.874Z,20.81
2022-09-15T13:56:47.405Z,21.07
2022-09-15T13:59:24.166Z,21.04
2022-09-15T14:01:52.775Z,21.21
2022-09-15T14:04:24.272Z,21.21
2022-09-15T14:06:57.101Z,21.18
2022-09-15T14:09:39.542Z,21.13
2022-09-15T14:12:11.996Z,20.97
2022-09-15T14:14:55.306Z,21.08
2022-09-15T14:17:28.609Z,21.38
2022-09-15T14:20:01.341Z,21.64
2022-09-15T14:22:33.022Z,21.71
2022-09-15T14:25:06.567Z,21.57
2022-09-15T14:27:35.923Z,21.50
2022-09-15T14:30:06.812Z,21.82
2022-09-15T14:32:43.178Z,21.95
2022-09-15T14:35:19.696Z,21.61
2022-09-15T14:37:55.421Z,21.46
2022-09-15T14:40:42.682Z,21.49
2022-09-15T14:43:35.537Z,21.57
2022-09-15T14:46:19.289Z,21.33
2022-09-15T14:48:46.485Z,21.12
2022-09-15T14:51:28.475Z,21.04
2022-09-15T14:53:58.500Z,20.94
2022-09-15T14:56:29.716Z,21.04
2022-09-15T14:58:59.649Z,21.07
2022-09-15T15:01:37.818Z,21.23
2022-09-15T15:04:20.039Z,21.30
2022-09-15T15:07:02.638Z,21.32
2022-09-15T15:09:33.930Z,21.21
2022-09-15T15:12:06.401Z,21.19
2022-09-15T15:14:35.124Z,21.37
2022-09-15T15:17:07.939Z,21.46
2022-09-15T15:19:40.676Z,21.20
2022-09-15T15:22:13.690Z,21.13
2022-09-15T15:24:43.878Z,21.12
2022-09-15T15:27:43.579Z,20.99
2022-09-15T15:30:33.272Z,20.79
2022-09-15T15:33:17.403Z,20.90
2022-09-15T15:35:46.837Z,20.88
2022-09-15T15:38:18.307Z,20.91
2022-09-15T15:40:46.018Z,20.88
2022-09-15T15:43:27.410Z,20.92
2022-09-15T15:46:00.972Z,20.72
2022-09-15T15:48:34.029Z,20.85
2022-09-15T15:51:03.503Z,20.85
2022-09-15T15:53:30.288Z,20.81
2022-09-15T15:55:58.510Z,20.85
2022-09-15T15:58:25.256Z,20.74
2022-09-15T16:00:54.599Z,20.58
2022-09-15T16:03:23.212Z,20.57
2022-09-15T16:05:58.142Z,20.46
2022-09-15T16:08:30.072Z,20.48
2022-09-15T16:10:57.668Z,20.29
2022-09-15T16:13:24.916Z,20.22
2022-09-15T16:15:59.988Z,20.32
2022-09-15T16:18:27.714Z,20.44
2022-09-15T16:20:54.694Z,20.27
2022-09-15T16:23:23.049Z,20.28
2022-09-15T16:26:05.140Z,20.33
2022-09-15T16:28:32.016Z,20.22
2022-09-15T16:30:59.382Z,20.02
2022-09-15T16:33:26.565Z,20.05
2022-09-15T16:36:06.428Z,20.17
2022-09-15T16:38:36.922Z,20.08
2022-09-15T16:41:10.281Z,20.17
2022-09-15T16:43:37.087Z,20.06
2022-09-15T16:46:05.934Z,20.12
2022-09-15T16:48:34.211Z,20.22
2022-09-15T16:51:20.932Z,20.08
2022-09-15T16:53:48.873Z,20.09
2022-09-15T16:56:15.860Z,20.06
2022-09-15T16:58:43.397Z,19.99
2022-09-15T17:01:21.813Z,20.07
2022-09-15T17:03:48.417Z,20.09
2022-09-15T17:06:17.732Z,20.05
2022-09-15T17:08:45.439Z,19.92
2022-09-15T17:11:16.939Z,19.87
2022-09-15T17:13:45.215Z,19.95
2022-09-15T17:16:14.903Z,20.03
2022-09-15T17:18:41.613Z,19.77
2022-09-15T17:21:11.290Z,19.77
2022-09-15T17:23:40.738Z,19.71
2022-09-15T17:26:14.281Z,19.75
2022-09-15T17:28:42.115Z,19.76
2022-09-15T17:31:18.203Z,19.75
2022-09-15T17:33:47.563Z,19.68
2022-09-15T17:36:14.857Z,19.62
2022-09-15T17:38:41.985Z,19.61
2022-09-15T17:41:15.473Z,19.58
2022-09-15T17:43:42.477Z,19.55
2022-09-15T17:46:09.291Z,19.54
2022-09-15T17:48:39.026Z,19.61
2022-09-15T17:51:07.120Z,19.61
2022-09-15T17:53:35.482Z,19.82
2022-09-15T17:56:03.379Z,19.94
2022-09-15T17:58:31.370Z,19.73
2022-09-15T18:00:59.265Z,19.69
2022-09-15T18:03:34.245Z,19.71
2022-09-15T18:06:07.957Z,19.74
2022-09-15T18:08:36.404Z,19.75
2022-09-15T18:11:04.748Z,19.84
2022-09-15T18:13:31.405Z,19.64
2022-09-15T18:16:02.756Z,19.46
2022-09-15T18:18:30.869Z,19.46
2022-09-15T18:20:58.411Z,19.44
2022-09-15T18:23:28.294Z,19.71
2022-09-15T18:25:55.308Z,19.72
2022-09-15T18:28:22.087Z,19.62
2022-09-15T18:30:50.488Z,19.85
2022-09-15T18:33:21.162Z,19.88
2022-09-15T18:35:50.104Z,19.83
2022-09-15T18:38:17.615Z,19.69
2022-09-15T18:40:49.721Z,19.72
2022-09-15T18:43:19.105Z,19.72
2022-09-15T18:45:46.213Z,19.66
2022-09-15T18:48:13.372Z,19.73
2022-09-15T18:50:43.838Z,19.68
2022-09-15T18:53:11.036Z,19.52
2022-09-15T18:55:41.003Z,19.64
2022-09-15T18:58:07.975Z,19.57
2022-09-15T19:00:34.537Z,19.69
2022-09-15T19:03:03.017Z,19.59
2022-09-15T19:05:30.814Z,19.52
2022-09-15T19:07:57.734Z,19.58
2022-09-15T19:10:28.563Z,19.53
2022-09-15T19:12:57.765Z,19.49
2022-09-15T19:15:24.597Z,19.46
2022-09-15T19:17:51.506Z,19.46
2022-09-15T19:20:19.404Z,19.56
2022-09-15T19:22:47.412Z,19.49
2022-09-15T19:25:14.539Z,19.53
2022-09-15T19:27:41.656Z,19.50
2022-09-15T19:30:11.918Z,19.42
2022-09-15T19:32:39.919Z,19.52
2022-09-15T19:35:08.451Z,19.44
2022-09-15T19:37:37.502Z,19.53
2022-09-15T19:40:08.965Z,19.43
2022-09-15T19:42:38.985Z,19.44
2022-09-15T19:45:09.887Z,19.44
2022-09-15T19:47:37.580Z,19.22
2022-09-15T19:50:06.417Z,19.35
2022-09-15T19:52:33.088Z,19.26
2022-09-15T19:55:01.050Z,19.11
2022-09-15T19:57:27.888Z,19.03
2022-09-15T19:59:54.520Z,19.15
2022-09-15T20:02:21.216Z,19.17
2022-09-15T20:04:50.350Z,19.22
2022-09-15T20:07:17.078Z,19.04
2022-09-15T20:09:44.148Z,18.94
2022-09-15T20:12:11.128Z,19.16
2022-09-15T20:14:39.979Z,18.90
2022-09-15T20:17:09.714Z,18.85
2022-09-15T20:19:37.093Z,18.81
2022-09-15T20:22:04.581Z,18.89
2022-09-15T20:24:31.334Z,18.80
2022-09-15T20:26:59.159Z,18.69
2022-09-15T20:29:25.923Z,18.68
2022-09-15T20:31:54.891Z,18.44
2022-09-15T20:34:21.655Z,18.49
2022-09-15T20:36:48.857Z,18.55
2022-09-15T20:39:18.637Z,18.57
2022-09-15T20:41:45.923Z,18.47
2022-09-15T20:44:12.749Z,18.42
2022-09-15T20:46:39.847Z,18.47
2022-09-15T20:49:07.715Z,18.49
2022-09-15T20:51:37.642Z,18.35
2022-09-15T20:54:04.986Z,18.35
2022-09-15T20:56:34.997Z,18.27
2022-09-15T20:59:03.546Z,18.40
2022-09-15T21:01:37.064Z,18.25
2022-09-15T21:04:05.822Z,18.23
2022-09-15T21:06:32.932Z,18.16
2022-09-15T21:09:00.240Z,18.18
2022-09-15T21:11:28.080Z,18.31
2022-09-15T21:13:55.759Z,18.29
2022-09-15T21:16:25.048Z,18.19
2022-09-15T21:18:52.229Z,18.37
2022-09-15T21:21:20.282Z,18.52
2022-09-15T21:23:49.490Z,18.38
2022-09-15T21:26:18.622Z,18.28
2022-09-15T21:28:45.965Z,18.23
2022-09-15T21:31:15.972Z,18.30
2022-09-15T21:33:46.482Z,18.31
2022-09-15T21:36:19.016Z,18.24
2022-09-15T21:38:46.822Z,18.30
2022-09-15T21:41:16.070Z,18.23
2022-09-15T21:43:45.498Z,18.20
2022-09-15T21:46:18.177Z,18.15
2022-09-15T21:48:47.022Z,18.14
2022-09-15T21:51:15.668Z,18.20
2022-09-15T21:53:43.140Z,18.12
2022-09-15T21:56:11.930Z,18.04
2022-09-15T21:58:42.899Z,17.96
2022-09-15T22:01:10.246Z,18.22
2022-09-15T22:03:37.548Z,18.19
2022-09-15T22:06:04.223Z,18.04
2022-09-15T22:08:30.943Z,18.04
2022-09-15T22:11:01.048Z,17.95
2022-09-15T22:13:28.266Z,18.01
2022-09-15T22:16:06.617Z,18.10
2022-09-15T22:18:37.095Z,18.08
2022-09-15T22:21:09.535Z,18.21
2022-09-15T22:23:36.335Z,18.19
2022-09-15T22:26:25.715Z,18.05
2022-09-15T22:28:52.772Z,18.01
2022-09-15T22:31:24.186Z,17.96
2022-09-15T22:33:51.966Z,17.89
2022-09-15T22:36:24.054Z,17.91
2022-09-15T22:38:55.478Z,17.94
2022-09-15T22:41:25.184Z,17.90
2022-09-15T22:43:52.097Z,17.95
2022-09-15T22:46:19.775Z,17.93
2022-09-15T22:48:47.752Z,17.88
2022-09-15T22:51:15.764Z,17.92
2022-09-15T22:53:42.588Z,17.84
2022-09-15T22:56:14.866Z,17.75
2022-09-15T22:58:44.308Z,17.85
2022-09-15T23:01:19.971Z,18.02
2022-09-15T23:03:55.626Z,17.86
2022-09-15T23:06:23.224Z,17.66
2022-09-15T23:08:54.566Z,17.70
2022-09-15T23:11:21.610Z,17.60
2022-09-15T23:13:48.356Z,17.49
2022-09-15T23:16:15.058Z,17.74
2022-09-15T23:18:43.101Z,17.65
2022-09-15T23:21:11.374Z,17.63
2022-09-15T23:23:39.813Z,17.58
2022-09-15T23:26:10.148Z,17.68
2022-09-15T23:28:41.152Z,17.57
2022-09-15T23:31:10.630Z,17.60
2022-09-15T23:33:37.770Z,17.63
2022-09-15T23:36:07.174Z,17.68
2022-09-15T23:38:41.400Z,17.67
2022-09-15T23:41:09.173Z,17.59
2022-09-15T23:43:36.912Z,17.63
2022-09-15T23:46:04.223Z,17.84
2022-09-15T23:48:34.301Z,17.63
2022-09-15T23:51:01.381Z,17.61
2022-09-15T23:53:28.748Z,17.65
2022-09-15T23:55:56.327Z,17.62
2022-09-15T23:58:23.022Z,17.61
